Time;durP1;ratioP1;P1;durP2;ratioP2;P2;SDS_P1;SDS_P2;PMS_P1;PMS_P2;Temp;Humidity;BMP_temperature;BMP_pressure;BME280_temperature;BME280_humidity;BME280_pressure;Samples;Min_cycle;Max_cycle;Signal;HPM_P1;HPM_P2
2022/08/04 00:00:04;;;;;;;3.83;1.65;;;23.40;67.80;;;;;;5042665;28;20041;-67
2022/08/04 00:02:45;;;;;;;5.20;1.45;;;23.60;67.60;;;;;;5076538;28;20107;-68
2022/08/04 00:05:54;;;;;;;3.85;1.50;;;23.50;67.70;;;;;;5067802;28;20036;-68
2022/08/04 00:08:29;;;;;;;4.30;1.42;;;23.40;67.90;;;;;;5074020;28;21765;-68
2022/08/04 00:10:58;;;;;;;3.47;1.40;;;23.50;67.70;;;;;;5077729;28;20075;-68
2022/08/04 00:13:26;;;;;;;3.22;1.50;;;23.50;67.90;;;;;;5072007;28;20017;-68
2022/08/04 00:16:00;;;;;;;4.20;1.70;;;23.40;68.30;;;;;;5072568;28;20082;-68
2022/08/04 00:18:36;;;;;;;2.70;1.42;;;23.30;68.10;;;;;;5071114;28;20025;-68
2022/08/04 00:21:05;;;;;;;3.75;1.48;;;23.30;68.70;;;;;;5073587;28;20028;-68
2022/08/04 00:23:35;;;;;;;3.33;1.40;;;23.20;69.10;;;;;;5064489;28;20043;-68
2022/08/04 00:26:05;;;;;;;4.57;1.63;;;23.10;69.60;;;;;;5080715;28;20332;-68
2022/08/04 00:28:33;;;;;;;4.88;1.77;;;23.00;69.80;;;;;;5080881;28;20033;-68
2022/08/04 00:30:59;;;;;;;3.65;1.50;;;22.90;70.10;;;;;;5077910;28;20425;-67
2022/08/04 00:33:25;;;;;;;4.90;1.42;;;22.80;70.50;;;;;;5072346;28;20057;-68
2022/08/04 00:35:51;;;;;;;4.10;1.58;;;22.70;71.20;;;;;;5068959;28;20043;-68
2022/08/04 00:38:18;;;;;;;3.92;1.60;;;22.60;71.00;;;;;;5064370;28;20422;-69
2022/08/04 00:41:01;;;;;;;5.07;1.58;;;22.60;70.70;;;;;;5070459;28;20070;-68
2022/08/04 00:43:48;;;;;;;2.97;1.48;;;22.50;71.60;;;;;;5067499;28;20125;-68
2022/08/04 00:46:34;;;;;;;3.67;1.38;;;22.30;72.90;;;;;;5070546;28;20024;-68
2022/08/04 00:49:26;;;;;;;3.15;1.40;;;22.00;74.00;;;;;;5066936;28;20372;-68
2022/08/04 00:51:59;;;;;;;3.67;1.80;;;21.80;75.10;;;;;;5068268;28;20036;-68
2022/08/04 00:55:00;;;;;;;3.10;1.38;;;21.50;75.70;;;;;;5074271;28;20325;-68
2022/08/04 00:58:18;;;;;;;6.00;1.73;;;21.30;76.00;;;;;;5074591;28;20043;-69
2022/08/04 01:01:05;;;;;;;7.15;1.60;;;21.10;76.60;;;;;;5070565;28;20036;-67
2022/08/04 01:04:02;;;;;;;3.17;1.60;;;21.00;77.50;;;;;;5072722;28;20332;-66
2022/08/04 01:07:22;;;;;;;3.60;1.77;;;20.90;78.50;;;;;;5069851;28;20029;-67
2022/08/04 01:10:03;;;;;;;4.03;1.63;;;20.80;78.90;;;;;;5020562;28;20060;-67
2022/08/04 01:12:31;;;;;;;5.10;1.83;;;20.70;78.80;;;;;;5068156;28;20043;-67
2022/08/04 01:15:09;;;;;;;3.30;1.50;;;20.60;79.30;;;;;;5074605;28;20082;-66
2022/08/04 01:17:34;;;;;;;5.60;1.60;;;20.60;77.90;;;;;;5071790;28;20473;-67
2022/08/04 01:20:09;;;;;;;3.17;1.60;;;20.90;75.90;;;;;;5067092;28;20116;-67
2022/08/04 01:23:12;;;;;;;3.63;1.45;;;21.30;74.80;;;;;;5060971;28;20498;-66
2022/08/04 01:25:51;;;;;;;3.20;1.60;;;21.70;72.40;;;;;;5060945;28;20044;-67
2022/08/04 01:28:46;;;;;;;3.35;1.73;;;22.00;72.20;;;;;;5064263;28;20368;-67
2022/08/04 01:31:25;;;;;;;4.28;1.60;;;22.10;71.00;;;;;;5062605;28;20037;-66
2022/08/04 01:33:55;;;;;;;5.57;1.70;;;22.30;70.40;;;;;;5065141;28;20040;-67
2022/08/04 01:36:24;;;;;;;4.43;1.75;;;22.40;70.20;;;;;;5073879;28;20017;-67
2022/08/04 01:38:53;;;;;;;3.63;1.30;;;22.40;69.70;;;;;;5067028;28;20449;-67
2022/08/04 01:41:19;;;;;;;3.60;1.70;;;22.50;69.20;;;;;;5073487;28;20036;-67
2022/08/04 01:43:46;;;;;;;3.13;1.40;;;22.50;69.10;;;;;;5071171;28;20556;-65
2022/08/04 01:46:16;;;;;;;3.78;1.67;;;22.40;70.40;;;;;;5063034;28;20440;-67
2022/08/04 01:48:52;;;;;;;3.50;1.60;;;22.30;69.70;;;;;;5057589;28;20049;-67
2022/08/04 01:51:21;;;;;;;4.38;1.50;;;22.40;68.60;;;;;;5070043;28;20102;-67
2022/08/04 01:53:46;;;;;;;3.50;1.50;;;22.60;68.20;;;;;;5074393;28;20021;-67
2022/08/04 01:56:12;;;;;;;3.58;1.50;;;22.60;68.50;;;;;;5061857;28;20021;-68
2022/08/04 01:58:41;;;;;;;3.00;1.52;;;22.60;68.60;;;;;;5065199;28;20494;-67
2022/08/04 02:01:10;;;;;;;2.97;1.30;;;22.50;68.60;;;;;;5069473;28;20025;-66
2022/08/04 02:03:42;;;;;;;2.90;1.40;;;22.60;67.80;;;;;;5073402;28;20119;-66
2022/08/04 02:06:35;;;;;;;2.85;1.30;;;22.70;67.70;;;;;;5064153;28;20032;-68
2022/08/04 02:09:18;;;;;;;4.57;1.48;;;22.80;67.40;;;;;;5069416;28;20369;-68
2022/08/04 02:11:54;;;;;;;2.85;1.52;;;22.80;67.40;;;;;;5074026;28;20085;-68
2022/08/04 02:14:39;;;;;;;3.45;1.50;;;22.90;67.30;;;;;;5066766;28;20029;-67
2022/08/04 02:17:24;;;;;;;4.05;1.30;;;22.70;70.50;;;;;;5072004;28;20444;-67
2022/08/04 02:19:50;;;;;;;2.80;1.50;;;22.40;69.70;;;;;;5074484;28;20032;-68
2022/08/04 02:22:20;;;;;;;3.80;1.38;;;22.40;69.70;;;;;;5071434;28;20025;-68
2022/08/04 02:24:49;;;;;;;5.13;1.88;;;22.40;69.40;;;;;;5074719;28;20043;-68
2022/08/04 02:27:18;;;;;;;4.32;1.33;;;22.40;69.90;;;;;;5068025;28;20422;-68
2022/08/04 02:30:01;;;;;;;3.30;1.50;;;22.30;71.20;;;;;;5067338;28;20024;-66
2022/08/04 02:32:32;;;;;;;5.93;1.48;;;22.10;71.70;;;;;;5057128;28;20049;-66
2022/08/04 02:35:17;;;;;;;4.95;1.80;;;22.10;70.60;;;;;;5059404;28;20022;-66
2022/08/04 02:37:48;;;;;;;3.40;1.60;;;22.30;69.90;;;;;;5059666;28;20166;-66
2022/08/04 02:40:19;;;;;;;3.22;1.63;;;22.40;70.60;;;;;;5065109;28;20299;-66
2022/08/04 02:42:46;;;;;;;3.28;1.55;;;22.30;71.40;;;;;;5073742;28;20024;-68
2022/08/04 02:45:12;;;;;;;3.95;1.77;;;22.00;72.40;;;;;;5064931;28;20033;-68
2022/08/04 02:47:48;;;;;;;3.03;1.60;;;21.90;72.60;;;;;;5075081;28;20103;-68
2022/08/04 02:50:15;;;;;;;3.30;1.45;;;21.80;73.50;;;;;;5074391;28;20121;-68
2022/08/04 02:52:43;;;;;;;4.13;1.50;;;21.70;73.00;;;;;;5071224;28;20032;-67
2022/08/04 02:55:12;;;;;;;3.40;1.58;;;21.60;73.70;;;;;;5071401;28;20017;-68
2022/08/04 02:57:38;;;;;;;2.78;1.50;;;21.40;73.70;;;;;;5072033;28;20036;-66
2022/08/04 03:00:12;;;;;;;3.05;1.55;;;21.30;74.90;;;;;;5066883;28;20031;-67
2022/08/04 03:02:56;;;;;;;3.22;1.63;;;21.10;74.80;;;;;;5062238;28;20035;-66
2022/08/04 03:05:31;;;;;;;3.05;1.52;;;21.00;75.50;;;;;;5077661;28;20029;-67
2022/08/04 03:08:23;;;;;;;3.00;1.42;;;20.90;76.30;;;;;;5068927;28;20040;-67
2022/08/04 03:11:26;;;;;;;5.72;1.80;;;20.70;76.90;;;;;;5067995;28;20410;-68
2022/08/04 03:14:04;;;;;;;3.67;1.65;;;20.50;77.80;;;;;;5061292;28;20502;-67
2022/08/04 03:16:53;;;;;;;3.38;1.70;;;20.30;78.40;;;;;;5076730;28;20077;-67
2022/08/04 03:19:38;;;;;;;4.38;1.88;;;20.20;79.30;;;;;;5077318;28;20036;-67
2022/08/04 03:22:21;;;;;;;4.57;1.65;;;20.00;81.30;;;;;;5074702;28;20079;-67
2022/08/04 03:24:50;;;;;;;4.03;1.75;;;19.90;81.10;;;;;;5066124;28;20158;-67
2022/08/04 03:27:24;;;;;;;3.03;1.60;;;19.90;82.10;;;;;;5074256;28;20040;-67
2022/08/04 03:30:23;;;;;;;3.72;1.50;;;19.70;81.80;;;;;;5064409;28;20025;-67
2022/08/04 03:33:27;;;;;;;4.22;1.80;;;19.60;82.30;;;;;;5076248;28;20056;-67
2022/08/04 03:36:08;;;;;;;5.05;1.38;;;19.60;81.30;;;;;;5060145;28;20032;-67
2022/08/04 03:38:55;;;;;;;3.58;1.73;;;19.60;81.10;;;;;;5066781;28;20410;-68
2022/08/04 03:41:31;;;;;;;5.47;1.77;;;19.50;80.90;;;;;;5073175;28;20077;-67
2022/08/04 03:44:16;;;;;;;3.03;1.67;;;19.60;80.90;;;;;;5072115;28;20356;-68
2022/08/04 03:47:00;;;;;;;4.10;1.65;;;19.50;81.40;;;;;;5067487;28;20449;-67
2022/08/04 03:49:31;;;;;;;7.28;1.77;;;19.40;81.50;;;;;;5068003;28;20317;-68
2022/08/04 03:55:30;;;;;;;6.05;1.85;;;19.50;81.50;;;;;;5074954;28;20043;-68
2022/08/04 03:58:10;;;;;;;4.87;1.87;;;19.50;81.60;;;;;;5065300;28;20020;-68
2022/08/04 04:00:42;;;;;;;4.57;1.63;;;19.50;82.10;;;;;;5073261;28;20020;-68
2022/08/04 04:03:48;;;;;;;3.22;1.38;;;19.50;82.10;;;;;;5066791;28;20066;-68
2022/08/04 04:06:28;;;;;;;4.32;1.63;;;19.40;82.30;;;;;;5059838;28;20032;-68
2022/08/04 04:09:12;;;;;;;4.32;1.85;;;19.50;82.40;;;;;;5072186;28;20040;-68
2022/08/04 04:11:58;;;;;;;4.47;1.75;;;19.50;82.00;;;;;;5066088;28;20036;-68
2022/08/04 04:14:38;;;;;;;3.70;1.90;;;19.50;82.90;;;;;;5068045;28;20029;-68
2022/08/04 04:17:28;;;;;;;3.22;1.67;;;19.40;82.70;;;;;;5067790;28;20048;-68
2022/08/04 04:20:11;;;;;;;5.15;1.92;;;19.40;83.20;;;;;;5063903;28;20900;-68
2022/08/04 04:22:43;;;;;;;3.78;1.80;;;19.30;83.60;;;;;;5072390;28;20031;-68
2022/08/04 04:25:20;;;;;;;4.63;2.10;;;19.40;84.60;;;;;;5073571;28;20028;-68
2022/08/04 04:28:10;;;;;;;4.68;1.70;;;19.40;84.60;;;;;;5069527;28;20078;-68
2022/08/04 04:30:57;;;;;;;4.40;1.80;;;19.40;83.80;;;;;;5075807;28;20041;-68
2022/08/04 04:34:07;;;;;;;5.40;1.90;;;19.60;82.20;;;;;;5080509;28;20028;-68
2022/08/04 04:36:39;;;;;;;5.28;1.50;;;19.70;81.80;;;;;;5055974;28;20029;-68
2022/08/04 04:39:27;;;;;;;4.38;1.70;;;19.80;81.30;;;;;;5075236;28;20027;-67
2022/08/04 04:41:53;;;;;;;4.40;1.90;;;19.80;81.20;;;;;;5066585;28;20495;-68
2022/08/04 04:44:43;;;;;;;4.97;2.20;;;19.90;81.50;;;;;;5079087;28;20072;-68
2022/08/04 04:47:39;;;;;;;4.95;1.95;;;19.90;82.20;;;;;;5069462;28;20024;-68
2022/08/04 04:50:19;;;;;;;4.95;2.05;;;19.80;82.30;;;;;;5069253;28;20024;-68
2022/08/04 04:52:45;;;;;;;4.63;1.70;;;19.80;82.20;;;;;;5072799;28;20027;-68
2022/08/04 04:55:30;;;;;;;3.28;1.63;;;19.90;81.70;;;;;;5076797;28;20298;-68
2022/08/04 04:58:00;;;;;;;4.05;1.70;;;20.00;82.00;;;;;;5077081;28;20071;-68
2022/08/04 05:00:46;;;;;;;4.25;1.75;;;20.00;82.40;;;;;;5079962;28;20032;-68
2022/08/04 05:03:45;;;;;;;3.85;1.70;;;19.90;83.00;;;;;;5049453;28;20066;-68
2022/08/04 05:06:47;;;;;;;4.32;1.80;;;20.00;82.90;;;;;;5068269;28;20318;-68
2022/08/04 05:09:50;;;;;;;3.20;1.70;;;20.00;83.10;;;;;;5073538;28;20125;-68
2022/08/04 05:12:33;;;;;;;4.82;2.00;;;20.10;82.60;;;;;;5072901;28;20029;-67
2022/08/04 05:15:02;;;;;;;4.20;1.95;;;20.00;83.90;;;;;;5060649;28;20025;-68
2022/08/04 05:17:42;;;;;;;3.47;1.90;;;20.00;83.10;;;;;;5065759;28;20098;-67
2022/08/04 05:20:37;;;;;;;3.35;1.70;;;20.10;83.50;;;;;;5075479;28;20437;-68
2022/08/04 05:23:12;;;;;;;5.35;1.80;;;20.20;82.90;;;;;;5074887;28;20037;-68
2022/08/04 05:25:46;;;;;;;5.35;1.90;;;20.20;82.60;;;;;;5063990;28;20047;-67
2022/08/04 05:28:17;;;;;;;5.60;2.10;;;20.20;82.60;;;;;;5070794;28;20033;-66
2022/08/04 05:30:49;;;;;;;3.72;1.70;;;20.30;82.50;;;;;;5068258;28;20125;-66
2022/08/04 05:33:26;;;;;;;4.97;1.73;;;20.40;82.60;;;;;;5067818;28;20036;-66
2022/08/04 05:35:56;;;;;;;6.32;2.05;;;20.50;82.40;;;;;;5067065;28;20445;-66
2022/08/04 05:38:28;;;;;;;4.25;1.90;;;20.70;81.90;;;;;;5073554;28;20040;-68
2022/08/04 05:40:55;;;;;;;4.90;1.83;;;20.80;82.00;;;;;;5073207;28;20305;-68
2022/08/04 05:43:25;;;;;;;3.60;1.80;;;21.00;81.80;;;;;;5077697;28;20299;-68
2022/08/04 05:45:52;;;;;;;4.22;1.95;;;21.20;82.50;;;;;;5072311;28;20364;-68
2022/08/04 05:48:18;;;;;;;4.30;1.80;;;21.40;80.80;;;;;;5072153;28;20090;-68
2022/08/04 05:50:45;;;;;;;3.08;1.63;;;21.60;80.90;;;;;;5072194;28;20033;-67
2022/08/04 05:53:14;;;;;;;3.65;1.92;;;21.80;79.50;;;;;;5071947;28;20477;-67
2022/08/04 05:55:40;;;;;;;3.70;2.00;;;22.00;78.30;;;;;;5082393;28;20373;-68
2022/08/04 05:58:08;;;;;;;2.80;1.40;;;22.30;79.00;;;;;;5077537;28;20057;-68
2022/08/04 06:00:36;;;;;;;3.80;1.83;;;22.40;78.60;;;;;;5065644;28;20093;-68
2022/08/04 06:03:03;;;;;;;5.32;1.90;;;22.50;79.10;;;;;;5078092;28;20028;-68
2022/08/04 06:05:32;;;;;;;3.53;1.63;;;22.70;79.20;;;;;;5067761;28;20029;-67
2022/08/04 06:07:58;;;;;;;3.00;1.80;;;22.80;78.80;;;;;;5071918;28;20113;-68
2022/08/04 06:10:25;;;;;;;5.07;2.00;;;23.00;77.60;;;;;;5076822;28;20078;-68
2022/08/04 06:12:55;;;;;;;4.63;2.15;;;23.10;75.20;;;;;;5070853;28;20024;-68
2022/08/04 06:15:22;;;;;;;3.35;1.85;;;23.20;76.30;;;;;;5076024;28;20045;-68
2022/08/04 06:17:52;;;;;;;5.10;2.08;;;23.40;75.80;;;;;;5069267;28;20354;-68
2022/08/04 06:20:24;;;;;;;3.60;2.00;;;23.60;76.30;;;;;;5064039;28;20123;-67
2022/08/04 06:22:54;;;;;;;3.25;1.90;;;23.70;77.00;;;;;;5063344;28;20029;-68
2022/08/04 06:25:23;;;;;;;4.45;1.83;;;23.80;74.20;;;;;;5069453;28;20487;-67
2022/08/04 06:27:50;;;;;;;3.28;1.67;;;23.90;75.20;;;;;;5070374;28;20360;-68
2022/08/04 06:30:18;;;;;;;3.88;1.85;;;24.00;75.00;;;;;;5070457;28;20307;-66
2022/08/04 06:32:47;;;;;;;4.82;1.90;;;24.20;76.20;;;;;;5074793;28;20040;-68
2022/08/04 06:35:15;;;;;;;4.40;1.90;;;24.30;77.30;;;;;;5076161;28;20032;-67
2022/08/04 06:37:45;;;;;;;4.38;1.85;;;24.40;77.10;;;;;;5076060;28;20321;-67
2022/08/04 06:40:16;;;;;;;3.78;1.90;;;24.50;75.30;;;;;;5077914;28;20294;-68
2022/08/04 06:42:43;;;;;;;4.22;2.00;;;24.60;75.20;;;;;;5075235;28;20032;-67
2022/08/04 06:45:11;;;;;;;6.25;1.90;;;24.70;76.20;;;;;;5074769;28;20108;-68
2022/08/04 06:47:39;;;;;;;5.93;1.90;;;24.90;76.60;;;;;;5069224;28;20025;-67
2022/08/04 06:50:06;;;;;;;5.03;1.90;;;25.40;75.70;;;;;;5075923;28;20016;-68
2022/08/04 06:52:32;;;;;;;3.80;1.67;;;26.40;73.20;;;;;;5075621;28;20072;-68
2022/08/04 06:54:57;;;;;;;3.50;1.48;;;27.30;71.30;;;;;;5075579;28;20063;-68
2022/08/04 06:57:26;;;;;;;2.88;1.58;;;28.40;69.20;;;;;;5075926;28;20123;-67
2022/08/04 07:00:02;;;;;;;5.63;1.60;;;29.10;67.20;;;;;;5066670;28;20025;-68
2022/08/04 07:02:31;;;;;;;5.13;1.90;;;29.30;67.00;;;;;;5065935;28;20035;-67
2022/08/04 07:04:58;;;;;;;4.65;1.80;;;28.60;67.40;;;;;;5075162;28;20017;-67
2022/08/04 07:07:24;;;;;;;3.38;1.50;;;27.90;68.50;;;;;;5076182;28;20041;-67
2022/08/04 07:09:50;;;;;;;5.05;1.80;;;27.60;70.20;;;;;;5074488;28;20025;-67
2022/08/04 07:12:20;;;;;;;4.20;1.92;;;27.50;69.60;;;;;;5078845;28;20038;-67
2022/08/04 07:14:47;;;;;;;5.28;1.90;;;27.30;69.70;;;;;;5073509;28;20027;-67
2022/08/04 07:17:14;;;;;;;5.43;2.00;;;27.30;69.80;;;;;;5076215;28;20103;-68
2022/08/04 07:19:40;;;;;;;4.50;1.80;;;27.30;69.80;;;;;;5070012;28;20035;-68
2022/08/04 07:22:07;;;;;;;3.85;1.65;;;27.40;68.30;;;;;;5065918;28;20024;-68
2022/08/04 07:24:35;;;;;;;5.65;1.88;;;27.50;69.30;;;;;;5066107;28;20112;-68
2022/08/04 07:27:01;;;;;;;4.65;2.00;;;27.70;69.20;;;;;;5059022;28;20104;-68
2022/08/04 07:29:28;;;;;;;3.30;1.70;;;27.80;69.50;;;;;;5058231;28;20028;-67
2022/08/04 07:31:55;;;;;;;4.25;2.00;;;28.00;69.70;;;;;;5046592;28;20064;-67
2022/08/04 07:34:22;;;;;;;3.55;1.80;;;28.10;69.70;;;;;;5045978;28;20997;-68
2022/08/04 07:36:51;;;;;;;5.25;1.75;;;28.20;69.20;;;;;;5046144;28;20020;-67
2022/08/04 07:39:17;;;;;;;3.20;1.80;;;28.30;68.90;;;;;;5052624;28;20032;-67
2022/08/04 07:41:43;;;;;;;5.22;2.00;;;28.40;69.30;;;;;;5070344;28;20031;-68
2022/08/04 07:44:11;;;;;;;3.83;1.85;;;28.60;69.10;;;;;;5072409;28;20024;-68
2022/08/04 07:46:37;;;;;;;4.25;1.55;;;28.90;68.20;;;;;;5057573;28;20333;-68
2022/08/04 07:49:04;;;;;;;3.70;1.70;;;29.80;67.50;;;;;;5056724;28;20119;-68
2022/08/04 07:51:34;;;;;;;5.50;1.90;;;31.10;63.60;;;;;;5055912;28;20424;-68
2022/08/04 07:54:04;;;;;;;5.50;1.73;;;32.00;60.90;;;;;;5055886;28;20033;-67
2022/08/04 07:56:35;;;;;;;3.78;1.67;;;32.60;60.10;;;;;;5054778;28;20314;-67
2022/08/04 07:59:01;;;;;;;4.60;1.80;;;33.40;58.60;;;;;;5057492;28;20059;-67
2022/08/04 08:01:28;;;;;;;3.95;1.65;;;33.70;57.40;;;;;;5056823;28;20041;-67
2022/08/04 08:03:55;;;;;;;2.75;1.50;;;33.90;57.90;;;;;;5055966;28;20047;-67
2022/08/04 08:06:22;;;;;;;2.97;1.50;;;34.20;57.00;;;;;;5055724;28;20025;-67
2022/08/04 08:08:48;;;;;;;4.15;1.67;;;34.50;57.30;;;;;;5055720;28;20037;-67
2022/08/04 08:11:16;;;;;;;4.57;1.48;;;34.50;56.90;;;;;;5055509;28;20342;-67
2022/08/04 08:13:42;;;;;;;4.28;1.60;;;34.80;56.40;;;;;;5054546;28;20418;-67
2022/08/04 08:16:08;;;;;;;2.65;1.60;;;35.20;55.60;;;;;;5055769;28;20082;-67
2022/08/04 08:18:37;;;;;;;6.15;1.67;;;35.70;54.50;;;;;;5055614;28;20101;-68
2022/08/04 08:21:08;;;;;;;4.25;1.67;;;36.50;52.60;;;;;;5055344;28;20029;-67
2022/08/04 08:23:34;;;;;;;5.03;1.73;;;36.30;52.60;;;;;;5080183;28;20062;-66
2022/08/04 08:26:00;;;;;;;4.55;1.48;;;36.40;53.10;;;;;;5075405;28;20085;-66
2022/08/04 08:28:32;;;;;;;3.75;1.50;;;36.20;52.20;;;;;;5072168;28;20044;-66
2022/08/04 08:30:57;;;;;;;3.65;1.52;;;36.20;52.10;;;;;;5079602;28;20021;-66
2022/08/04 08:33:24;;;;;;;5.57;1.60;;;36.20;53.20;;;;;;5082490;28;20035;-68
2022/08/04 08:35:57;;;;;;;5.78;1.70;;;36.80;51.70;;;;;;5079595;28;20112;-68
2022/08/04 08:38:49;;;;;;;3.80;1.50;;;37.10;51.40;;;;;;5078538;28;20321;-68
2022/08/04 08:41:23;;;;;;;3.17;1.52;;;37.70;50.80;;;;;;5058417;28;20103;-68
2022/08/04 08:44:22;;;;;;;3.53;1.48;;;37.90;50.40;;;;;;5077656;28;20028;-68
2022/08/04 08:47:13;;;;;;;3.30;1.88;;;37.10;51.60;;;;;;5079253;28;20028;-68
2022/08/04 08:50:16;;;;;;;4.60;1.60;;;37.10;52.20;;;;;;5079290;28;20020;-68
2022/08/04 08:52:58;;;;;;;3.95;1.77;;;37.50;50.30;;;;;;5081135;28;20036;-68
2022/08/04 08:56:01;;;;;;;2.70;1.40;;;37.70;50.00;;;;;;5077779;28;20094;-68
2022/08/04 08:58:51;;;;;;;4.03;1.33;;;37.50;51.10;;;;;;5077629;28;20151;-67
2022/08/04 09:01:53;;;;;;;5.72;1.55;;;38.40;49.10;;;;;;5077024;28;20376;-67
2022/08/04 09:04:34;;;;;;;4.25;1.80;;;38.80;46.90;;;;;;5076165;28;20054;-67
2022/08/04 09:07:18;;;;;;;6.40;1.73;;;38.20;47.80;;;;;;5078848;28;20040;-67
2022/08/04 09:10:28;;;;;;;5.18;2.00;;;38.20;47.00;;;;;;5077726;28;20054;-67
2022/08/04 09:13:09;;;;;;;3.47;1.60;;;38.40;47.80;;;;;;5007101;28;20037;-67
2022/08/04 09:16:03;;;;;;;4.90;1.63;;;38.30;48.10;;;;;;5061843;28;20127;-65
2022/08/04 09:18:55;;;;;;;4.15;2.03;;;37.50;48.80;;;;;;5074874;28;20326;-67
2022/08/04 09:21:23;;;;;;;3.20;1.38;;;37.50;48.10;;;;;;5072468;28;20111;-67
2022/08/04 09:24:10;;;;;;;3.42;1.52;;;37.50;48.30;;;;;;5078698;28;20020;-67
2022/08/04 09:26:54;;;;;;;5.88;1.73;;;37.50;49.20;;;;;;5076117;28;20032;-67
2022/08/04 09:29:21;;;;;;;3.35;1.60;;;37.90;47.90;;;;;;5079707;28;20052;-68
2022/08/04 09:32:20;;;;;;;6.57;2.03;;;37.50;47.90;;;;;;5073970;28;20027;-67
2022/08/04 09:35:20;;;;;;;3.60;1.70;;;37.50;47.70;;;;;;5070094;28;20419;-66
2022/08/04 09:38:15;;;;;;;5.78;1.88;;;37.60;47.10;;;;;;5077138;28;20291;-67
2022/08/04 09:40:47;;;;;;;3.85;1.52;;;37.40;47.80;;;;;;5062571;28;20041;-67
2022/08/04 09:43:24;;;;;;;4.43;1.80;;;37.60;47.40;;;;;;5074271;28;20104;-67
2022/08/04 09:46:02;;;;;;;6.47;1.85;;;37.80;47.20;;;;;;5067723;28;20101;-68
2022/08/04 09:48:52;;;;;;;4.50;1.60;;;38.40;46.70;;;;;;5070211;28;20025;-68
2022/08/04 09:51:32;;;;;;;4.63;2.08;;;38.60;46.60;;;;;;5058035;28;20025;-67
2022/08/04 09:54:06;;;;;;;5.10;1.90;;;39.50;44.70;;;;;;5063864;28;20437;-67
2022/08/04 09:56:47;;;;;;;3.38;1.20;;;39.20;43.40;;;;;;5063463;28;20037;-68
2022/08/04 09:59:26;;;;;;;3.97;1.58;;;38.60;43.50;;;;;;5077925;28;20027;-68
2022/08/04 10:02:03;;;;;;;3.05;1.50;;;38.30;44.20;;;;;;5077768;28;20036;-67
2022/08/04 10:04:31;;;;;;;3.13;1.40;;;38.20;43.70;;;;;;5077981;28;20016;-67
2022/08/04 10:07:26;;;;;;;3.97;1.20;;;38.20;43.00;;;;;;5077614;28;20046;-68
2022/08/04 10:10:28;;;;;;;2.92;1.55;;;37.80;42.70;;;;;;5076615;28;20029;-67
2022/08/04 10:12:54;;;;;;;3.47;1.52;;;37.70;43.30;;;;;;5068237;28;20431;-67
2022/08/04 10:15:30;;;;;;;2.47;1.13;;;38.20;41.80;;;;;;5077642;28;20100;-67
2022/08/04 10:18:17;;;;;;;4.15;1.40;;;38.50;41.00;;;;;;5077627;28;20029;-68
2022/08/04 10:21:20;;;;;;;3.78;1.75;;;38.50;43.70;;;;;;5075840;28;20036;-67
2022/08/04 10:24:11;;;;;;;3.40;1.52;;;38.70;42.90;;;;;;5077506;28;20025;-68
2022/08/04 10:27:08;;;;;;;5.18;1.80;;;39.00;43.60;;;;;;5076023;28;20043;-67
2022/08/04 10:29:42;;;;;;;5.50;1.63;;;39.10;42.90;;;;;;5077411;28;20055;-67
2022/08/04 10:32:13;;;;;;;4.07;1.83;;;38.40;43.30;;;;;;5077493;28;20032;-67
2022/08/04 10:35:05;;;;;;;3.67;1.58;;;37.90;43.00;;;;;;5076420;28;20033;-67
2022/08/04 10:38:03;;;;;;;2.97;1.40;;;38.00;43.40;;;;;;5069697;28;20064;-67
2022/08/04 10:40:44;;;;;;;3.00;1.50;;;38.50;42.60;;;;;;5053053;28;20033;-68
2022/08/04 10:43:24;;;;;;;2.92;1.30;;;38.70;43.40;;;;;;5077060;28;20031;-67
2022/08/04 10:46:06;;;;;;;3.90;1.63;;;38.00;43.30;;;;;;5076351;28;20021;-67
2022/08/04 10:48:42;;;;;;;4.07;1.70;;;37.70;45.10;;;;;;5076550;28;20017;-67
2022/08/04 10:51:37;;;;;;;3.08;1.50;;;38.30;43.40;;;;;;5073187;28;20029;-67
2022/08/04 10:54:10;;;;;;;3.50;1.65;;;38.70;43.20;;;;;;5076345;28;20046;-67
2022/08/04 10:56:41;;;;;;;;;;;38.90;42.10;;;;;;5076157;28;20028;-68
2022/08/04 10:59:28;;;;;;;3.17;1.63;;;39.10;43.10;;;;;;5076822;28;19930;-68
2022/08/04 11:02:01;;;;;;;4.00;1.73;;;39.50;43.50;;;;;;5076779;28;20020;-67
2022/08/04 11:04:36;;;;;;;4.22;1.60;;;39.40;42.30;;;;;;5076459;28;20025;-68
2022/08/04 11:07:02;;;;;;;3.67;1.40;;;39.50;42.70;;;;;;5073018;28;20040;-67
2022/08/04 11:09:30;;;;;;;4.30;1.42;;;39.30;43.40;;;;;;5068571;28;20029;-67
2022/08/04 11:12:09;;;;;;;3.55;1.63;;;39.00;42.80;;;;;;5060663;28;20365;-67
2022/08/04 11:14:52;;;;;;;4.70;1.70;;;38.10;43.60;;;;;;5081883;28;20108;-67
2022/08/04 11:17:33;;;;;;;4.32;1.83;;;38.20;44.00;;;;;;5073891;28;20065;-66
2022/08/04 11:20:02;;;;;;;3.58;1.80;;;37.90;44.20;;;;;;5070376;28;20162;-66
2022/08/04 11:22:28;;;;;;;5.63;1.65;;;38.30;43.20;;;;;;5076449;28;20017;-66
2022/08/04 11:25:19;;;;;;;3.30;1.80;;;38.50;44.90;;;;;;5076272;28;20295;-66
2022/08/04 11:28:15;;;;;;;3.38;1.60;;;39.00;43.60;;;;;;5076204;28;20044;-68
2022/08/04 11:31:16;;;;;;;4.88;1.90;;;39.10;42.90;;;;;;5056300;28;20024;-67
2022/08/04 11:34:00;;;;;;;4.05;1.92;;;39.10;42.60;;;;;;5056536;28;20033;-67
2022/08/04 11:36:44;;;;;;;3.63;1.85;;;38.90;43.60;;;;;;5057338;28;20033;-67
2022/08/04 11:39:16;;;;;;;4.85;1.80;;;38.50;42.60;;;;;;5065137;28;20028;-67
2022/08/04 11:42:14;;;;;;;3.78;1.80;;;38.40;43.90;;;;;;5074987;28;20398;-68
2022/08/04 11:44:47;;;;;;;3.67;1.75;;;38.60;44.30;;;;;;5076357;28;20372;-68
2022/08/04 11:47:51;;;;;;;4.20;1.90;;;38.60;43.30;;;;;;5075938;28;20012;-67
2022/08/04 11:50:32;;;;;;;4.13;1.83;;;38.30;44.40;;;;;;5052721;28;20079;-67
2022/08/04 11:52:59;;;;;;;4.07;1.75;;;38.10;44.50;;;;;;5075942;28;20075;-67
2022/08/04 11:55:27;;;;;;;4.55;1.80;;;37.70;44.70;;;;;;5074605;28;20112;-68
2022/08/04 11:57:53;;;;;;;5.82;1.90;;;37.40;45.30;;;;;;5075544;28;20016;-68
2022/08/04 12:00:19;;;;;;;4.03;1.60;;;37.90;44.80;;;;;;5058968;28;20021;-67
2022/08/04 12:02:58;;;;;;;3.28;1.80;;;38.10;44.20;;;;;;5055623;28;20040;-67
2022/08/04 12:05:35;;;;;;;5.22;1.90;;;37.80;43.40;;;;;;5074142;28;20025;-68
2022/08/04 12:08:35;;;;;;;5.07;2.03;;;37.40;45.00;;;;;;5075018;28;20048;-67
2022/08/04 12:11:23;;;;;;;5.90;2.53;;;37.30;45.90;;;;;;5054575;28;20029;-67
2022/08/04 12:14:03;;;;;;;5.72;1.90;;;38.10;43.50;;;;;;5076082;28;20020;-67
2022/08/04 12:16:57;;;;;;;5.13;1.98;;;38.50;43.20;;;;;;5075739;28;20021;-68
2022/08/04 12:19:26;;;;;;;5.03;1.90;;;38.80;42.40;;;;;;5066147;28;20032;-67
2022/08/04 12:21:56;;;;;;;3.80;1.80;;;38.50;42.80;;;;;;5058476;28;20028;-68
2022/08/04 12:24:29;;;;;;;5.32;1.80;;;38.80;43.80;;;;;;5075094;28;20033;-67
2022/08/04 12:27:05;;;;;;;3.05;1.70;;;39.10;43.90;;;;;;5072986;28;20126;-68
2022/08/04 12:29:35;;;;;;;3.58;1.48;;;38.30;43.70;;;;;;5055544;28;20028;-68
2022/08/04 12:32:07;;;;;;;3.80;1.85;;;38.20;45.20;;;;;;5063652;28;20929;-67
2022/08/04 12:34:53;;;;;;;4.38;1.92;;;38.00;44.40;;;;;;5072398;28;20032;-67
2022/08/04 12:37:36;;;;;;;4.53;1.75;;;38.00;45.30;;;;;;5074658;28;20040;-67
2022/08/04 12:40:08;;;;;;;7.50;2.25;;;38.40;44.80;;;;;;5074323;28;20021;-67
2022/08/04 12:43:01;;;;;;;4.40;1.88;;;38.80;43.10;;;;;;5075588;28;20055;-67
2022/08/04 12:45:28;;;;;;;4.18;1.83;;;38.50;43.50;;;;;;5075406;28;20111;-68
2022/08/04 12:47:58;;;;;;;3.83;1.48;;;38.50;42.90;;;;;;5071328;28;20445;-68
2022/08/04 12:50:24;;;;;;;4.65;1.60;;;38.80;43.70;;;;;;5074301;28;20032;-67
2022/08/04 12:52:56;;;;;;;4.45;1.58;;;39.60;42.30;;;;;;5060787;28;20083;-66
2022/08/04 12:55:28;;;;;;;3.50;1.63;;;39.80;42.30;;;;;;5053965;28;20086;-67
2022/08/04 12:57:55;;;;;;;4.22;2.00;;;39.70;42.60;;;;;;5055861;28;20033;-67
2022/08/04 13:00:46;;;;;;;3.20;1.50;;;38.70;42.20;;;;;;5070475;28;20025;-67
2022/08/04 13:03:16;;;;;;;5.70;1.90;;;37.70;44.50;;;;;;5076226;28;20104;-67
2022/08/04 13:05:42;;;;;;;2.72;1.58;;;37.50;47.10;;;;;;5075511;28;20028;-67
2022/08/04 13:08:12;;;;;;;3.15;1.65;;;38.30;44.00;;;;;;5068891;28;20045;-68
2022/08/04 13:10:45;;;;;;;3.33;1.60;;;39.00;43.50;;;;;;5076384;28;20035;-68
2022/08/04 13:13:18;;;;;;;3.22;1.77;;;39.90;41.30;;;;;;5080334;28;20028;-68
2022/08/04 13:15:55;;;;;;;4.25;1.90;;;40.60;40.00;;;;;;5078657;28;20316;-67
2022/08/04 13:18:21;;;;;;;3.30;1.67;;;40.10;40.00;;;;;;5079855;28;20043;-68
2022/08/04 13:20:47;;;;;;;3.65;1.35;;;39.70;40.70;;;;;;5078619;28;20029;-68
2022/08/04 13:23:15;;;;;;;2.70;1.50;;;39.50;40.20;;;;;;5071293;28;20029;-68
2022/08/04 13:25:47;;;;;;;4.32;1.70;;;39.30;41.50;;;;;;5057357;28;20366;-68
2022/08/04 13:28:21;;;;;;;3.10;1.60;;;39.50;40.60;;;;;;5075710;28;20053;-68
2022/08/04 13:30:53;;;;;;;3.83;1.48;;;40.00;40.40;;;;;;5078508;28;20032;-68
2022/08/04 13:33:19;;;;;;;6.00;1.70;;;40.30;40.10;;;;;;5078578;28;20078;-68
2022/08/04 13:35:46;;;;;;;5.00;1.70;;;41.00;39.30;;;;;;5078492;28;20024;-68
2022/08/04 13:38:15;;;;;;;6.40;1.67;;;40.30;39.40;;;;;;5063210;28;20426;-68
2022/08/04 13:40:43;;;;;;;5.18;1.60;;;39.50;39.90;;;;;;5057156;28;20039;-67